Destinations Billund Airport

Billund Airport (EKBI / BLL)

Flights to Billund Airport

Flight number From ETE Dispatch
SPY-2284 EGFF Cardiff International Airport 01:55
SPY-304 EHGG Groningen Airport Eelde 01:10

Flights from Billund Airport

Flight number To ETE Dispatch
SPY-2285 EGFF Cardiff International Airport 01:55
SPY-305 EHGG Groningen Airport Eelde 01:10
About

Billund Airport facts

Billund Airport is located in Billund at an elevation of 75.3 meters or 247 feet.

Currently, Speedy Airlines serves 4 flights to and from Billund Airport.

Detailed airport info

Route map

Weather

Current weather

METAR

METAR

Metar data retrieved Sunday, 21 July 2024 at 20:25 UTC

EKBI 211950Z 01006KT 9999 TSRA FEW033CB BKN110 20/18 Q1008
Wind Temperature Thunderstorm
6 kt 20c